Time;durP1;ratioP1;P1;durP2;ratioP2;P2;SDS_P1;SDS_P2;PMS_P1;PMS_P2;Temp;Humidity;BMP_temperature;BMP_pressure;BME280_temperature;BME280_humidity;BME280_pressure;Samples;Min_cycle;Max_cycle;Signal;HPM_P1;HPM_P2
2023/06/14 00:00:13;;;;;;;;;;;22.50;38.50;;;;;;5073986;28;20007;-39
2023/06/14 00:02:39;;;;;;;;;;;22.40;38.60;;;;;;5073948;28;19919;-36
2023/06/14 00:05:05;;;;;;;;;;;22.40;38.70;;;;;;5073753;28;19916;-36
2023/06/14 00:07:35;;;;;;;;;;;22.40;38.90;;;;;;5073986;28;19913;-36
2023/06/14 00:10:01;;;;;;;;;;;22.30;39.00;;;;;;5073869;28;20284;-41
2023/06/14 00:12:26;;;;;;;;;;;22.20;39.10;;;;;;5073395;28;19919;-35
2023/06/14 00:14:51;;;;;;;;;;;22.20;39.20;;;;;;5073611;28;19916;-40
2023/06/14 00:17:17;;;;;;;;;;;22.10;39.40;;;;;;5073588;28;20050;-42
2023/06/14 00:19:42;;;;;;;;;;;22.00;39.40;;;;;;5073314;28;20384;-39
2023/06/14 00:22:09;;;;;;;;;;;21.90;39.70;;;;;;5073388;28;19919;-42
2023/06/14 00:24:35;;;;;;;;;;;21.70;40.80;;;;;;5073265;28;19922;-41
2023/06/14 00:27:00;;;;;;;;;;;21.50;40.40;;;;;;5073139;28;19995;-40
2023/06/14 00:29:26;;;;;;;;;;;21.40;40.60;;;;;;5073216;28;19919;-41
2023/06/14 00:31:51;;;;;;;;;;;21.30;41.10;;;;;;5073102;28;19920;-42
2023/06/14 00:34:16;;;;;;;;;;;21.10;41.20;;;;;;5073135;28;19936;-41
2023/06/14 00:36:42;;;;;;;;;;;21.00;41.30;;;;;;5073022;28;19922;-44
2023/06/14 00:39:09;;;;;;;;;;;21.00;41.30;;;;;;5073062;28;20376;-43
2023/06/14 00:41:35;;;;;;;;;;;20.90;41.40;;;;;;5073259;28;19913;-41
2023/06/14 00:44:00;;;;;;;;;;;20.90;41.60;;;;;;5073179;28;20316;-43
2023/06/14 00:46:26;;;;;;;;;;;20.80;41.80;;;;;;5072919;28;19913;-40
2023/06/14 00:48:52;;;;;;;;;;;20.80;41.70;;;;;;5071436;28;19913;-42
2023/06/14 00:51:17;;;;;;;;;;;20.80;41.80;;;;;;5072797;28;19913;-43
2023/06/14 00:53:46;;;;;;;;;;;20.70;41.80;;;;;;5072836;28;19920;-42
2023/06/14 00:56:13;;;;;;;;;;;20.70;42.40;;;;;;5072756;28;20480;-40
2023/06/14 00:58:38;;;;;;;;;;;20.60;42.50;;;;;;5072683;28;19919;-40
2023/06/14 01:01:04;;;;;;;;;;;20.60;42.60;;;;;;5072524;28;19912;-40
2023/06/14 01:03:31;;;;;;;;;;;20.50;42.80;;;;;;5072691;28;20348;-41
2023/06/14 01:06:05;;;;;;;;;;;20.50;42.90;;;;;;5072505;28;20395;-41
2023/06/14 01:08:37;;;;;;;;;;;20.40;43.20;;;;;;5072473;28;19916;-40
2023/06/14 01:11:07;;;;;;;;;;;20.30;43.20;;;;;;5072675;28;19912;-42
2023/06/14 01:13:33;;;;;;;;;;;20.30;43.10;;;;;;5072341;28;19938;-43
2023/06/14 01:15:59;;;;;;;;;;;20.30;43.10;;;;;;5072307;28;19920;-42
2023/06/14 01:18:25;;;;;;;;;;;20.30;43.20;;;;;;5072399;28;20445;-43
2023/06/14 01:20:52;;;;;;;;;;;20.20;43.50;;;;;;5072431;28;20345;-42
2023/06/14 01:23:18;;;;;;;;;;;20.20;43.70;;;;;;5072317;28;19912;-42
2023/06/14 01:25:44;;;;;;;;;;;20.20;43.60;;;;;;5072827;28;19920;-42
2023/06/14 01:28:11;;;;;;;;;;;20.10;43.70;;;;;;5072268;28;19973;-42
2023/06/14 01:30:44;;;;;;;;;;;20.10;43.80;;;;;;5072237;28;20292;-40
2023/06/14 01:33:14;;;;;;;;;;;20.00;43.80;;;;;;5072182;28;19916;-47
2023/06/14 01:35:41;;;;;;;;;;;20.00;43.80;;;;;;5072190;28;19919;-45
2023/06/14 01:38:07;;;;;;;;;;;20.00;43.90;;;;;;5072526;28;20011;-43
2023/06/14 01:40:34;;;;;;;;;;;20.00;44.00;;;;;;5072149;28;19951;-44
2023/06/14 01:43:01;;;;;;;;;;;19.90;44.00;;;;;;5072033;28;19912;-41
2023/06/14 01:45:27;;;;;;;;;;;19.80;43.90;;;;;;5071964;28;19924;-43
2023/06/14 01:47:52;;;;;;;;;;;19.90;44.80;;;;;;5072138;28;20007;-40
2023/06/14 01:50:19;;;;;;;;;;;19.80;44.10;;;;;;5072101;28;19962;-48
2023/06/14 01:52:44;;;;;;;;;;;19.80;44.10;;;;;;5072246;28;19913;-43
2023/06/14 01:55:10;;;;;;;;;;;19.80;44.10;;;;;;5071925;28;20011;-41
2023/06/14 01:57:36;;;;;;;;;;;19.80;44.10;;;;;;5071945;28;19913;-43
2023/06/14 02:00:03;;;;;;;;;;;19.70;44.10;;;;;;5071880;28;19913;-45
2023/06/14 02:02:29;;;;;;;;;;;19.70;44.50;;;;;;5071901;28;20343;-44
2023/06/14 02:04:57;;;;;;;;;;;19.70;44.50;;;;;;5071602;28;19916;-41
2023/06/14 02:07:23;;;;;;;;;;;19.70;44.40;;;;;;5071841;28;19920;-42
2023/06/14 02:09:48;;;;;;;;;;;19.70;44.50;;;;;;5071818;28;19935;-42
2023/06/14 02:12:14;;;;;;;;;;;19.60;44.50;;;;;;5071778;28;19917;-39
2023/06/14 02:14:39;;;;;;;;;;;19.60;44.60;;;;;;5071827;28;19913;-43
2023/06/14 02:17:06;;;;;;;;;;;19.60;44.70;;;;;;5071680;28;19913;-43
2023/06/14 02:19:31;;;;;;;;;;;19.60;44.70;;;;;;5071700;28;19921;-41
2023/06/14 02:21:57;;;;;;;;;;;19.60;44.70;;;;;;5071726;28;20264;-44
2023/06/14 02:24:23;;;;;;;;;;;19.60;44.70;;;;;;5071613;28;19923;-41
2023/06/14 02:26:49;;;;;;;;;;;19.50;44.70;;;;;;5070352;28;19939;-43
2023/06/14 02:29:15;;;;;;;;;;;19.50;44.80;;;;;;5071727;28;19913;-43
2023/06/14 02:31:41;;;;;;;;;;;19.50;45.00;;;;;;5071647;28;19995;-39
2023/06/14 02:34:08;;;;;;;;;;;19.40;45.00;;;;;;5072079;28;19948;-43
2023/06/14 02:36:34;;;;;;;;;;;19.40;45.10;;;;;;5075559;28;19936;-40
2023/06/14 02:39:00;;;;;;;;;;;19.40;45.30;;;;;;5075399;28;19912;-44
2023/06/14 02:41:25;;;;;;;;;;;19.30;45.30;;;;;;5075539;28;19935;-42
2023/06/14 02:43:51;;;;;;;;;;;19.30;45.40;;;;;;5075503;28;20003;-41
2023/06/14 02:46:17;;;;;;;;;;;19.30;45.50;;;;;;5075646;28;20394;-43
2023/06/14 02:48:43;;;;;;;;;;;19.20;45.50;;;;;;5075367;28;19913;-41
2023/06/14 02:51:09;;;;;;;;;;;19.20;45.60;;;;;;5075454;28;19912;-43
2023/06/14 02:53:35;;;;;;;;;;;19.20;45.70;;;;;;5075109;28;20007;-43
2023/06/14 02:56:00;;;;;;;;;;;19.20;45.60;;;;;;5075045;28;19952;-37
2023/06/14 02:58:26;;;;;;;;;;;19.10;45.70;;;;;;5075263;28;19913;-40
2023/06/14 03:00:52;;;;;;;;;;;19.10;45.70;;;;;;5075278;28;19924;-41
2023/06/14 03:03:21;;;;;;;;;;;19.10;45.70;;;;;;5074892;28;19919;-39
2023/06/14 03:05:47;;;;;;;;;;;19.10;45.80;;;;;;5074795;28;20016;-43
2023/06/14 03:08:19;;;;;;;;;;;19.10;45.90;;;;;;5075112;28;20387;-40
2023/06/14 03:10:48;;;;;;;;;;;19.10;45.90;;;;;;5074991;28;20014;-39
2023/06/14 03:13:13;;;;;;;;;;;19.10;46.00;;;;;;5074733;28;19970;-42
2023/06/14 03:15:41;;;;;;;;;;;19.00;46.20;;;;;;5074721;28;19916;-42
2023/06/14 03:18:09;;;;;;;;;;;19.00;46.30;;;;;;5074886;28;19985;-41
2023/06/14 03:20:35;;;;;;;;;;;18.90;46.30;;;;;;5074583;28;20392;-38
2023/06/14 03:23:02;;;;;;;;;;;18.90;47.00;;;;;;5074705;28;19913;-40
2023/06/14 03:25:32;;;;;;;;;;;18.90;46.40;;;;;;5074838;28;20050;-34
2023/06/14 03:27:58;;;;;;;;;;;18.90;46.40;;;;;;5073309;28;19959;-34
2023/06/14 03:30:24;;;;;;;;;;;18.90;46.50;;;;;;5074574;28;19908;-33
2023/06/14 03:32:52;;;;;;;;;;;18.90;46.50;;;;;;5074466;28;19909;-34
2023/06/14 03:35:18;;;;;;;;;;;18.80;46.60;;;;;;5074662;28;20253;-35
2023/06/14 03:37:45;;;;;;;;;;;18.80;46.80;;;;;;5074662;28;19909;-34
2023/06/14 03:40:11;;;;;;;;;;;18.80;46.70;;;;;;5074503;28;19916;-35
2023/06/14 03:42:36;;;;;;;;;;;18.80;46.70;;;;;;5074413;28;19909;-35
2023/06/14 03:45:02;;;;;;;;;;;18.80;46.90;;;;;;5074078;28;19913;-36
2023/06/14 03:47:28;;;;;;;;;;;18.70;47.10;;;;;;5073253;28;19915;-34
2023/06/14 03:49:53;;;;;;;;;;;18.70;47.40;;;;;;5074206;28;19908;-33
2023/06/14 03:52:19;;;;;;;;;;;18.60;47.40;;;;;;5074247;28;19909;-35
2023/06/14 03:54:44;;;;;;;;;;;18.60;47.30;;;;;;5074469;28;20288;-35
2023/06/14 03:57:10;;;;;;;;;;;18.60;47.30;;;;;;5074114;28;19951;-35
2023/06/14 03:59:36;;;;;;;;;;;18.60;47.20;;;;;;5074428;28;19916;-35
2023/06/14 04:02:02;;;;;;;;;;;18.60;47.50;;;;;;5074208;28;20618;-35
2023/06/14 04:04:28;;;;;;;;;;;18.60;47.50;;;;;;5073879;28;20054;-35
2023/06/14 04:06:54;;;;;;;;;;;18.60;47.60;;;;;;5073877;28;19928;-35
2023/06/14 04:09:19;;;;;;;;;;;18.60;47.80;;;;;;5073948;28;19908;-35
2023/06/14 04:11:45;;;;;;;;;;;18.60;47.80;;;;;;5073939;28;19957;-34
2023/06/14 04:14:10;;;;;;;;;;;18.60;47.70;;;;;;5073832;28;19916;-36
2023/06/14 04:16:36;;;;;;;;;;;18.60;47.60;;;;;;5073957;28;20386;-34
2023/06/14 04:19:01;;;;;;;;;;;18.60;47.60;;;;;;5073685;28;19908;-35
2023/06/14 04:21:28;;;;;;;;;;;18.60;47.80;;;;;;5073911;28;19908;-35
2023/06/14 04:23:55;;;;;;;;;;;18.60;48.20;;;;;;5073568;28;20026;-35
2023/06/14 04:26:21;;;;;;;;;;;18.60;47.90;;;;;;5073499;28;19915;-34
2023/06/14 04:28:46;;;;;;;;;;;18.60;47.90;;;;;;5073537;28;19909;-35
2023/06/14 04:31:12;;;;;;;;;;;18.60;48.00;;;;;;5073637;28;19919;-33
2023/06/14 04:33:46;;;;;;;;;;;18.60;48.20;;;;;;5073509;28;19915;-34
2023/06/14 04:36:12;;;;;;;;;;;18.60;48.30;;;;;;5073347;28;19916;-34
2023/06/14 04:38:38;;;;;;;;;;;18.50;48.50;;;;;;5073379;28;20018;-35
2023/06/14 04:41:03;;;;;;;;;;;18.50;48.50;;;;;;5073272;28;19923;-35
2023/06/14 04:43:29;;;;;;;;;;;18.60;48.50;;;;;;5073250;28;19909;-35
2023/06/14 04:45:56;;;;;;;;;;;18.60;48.40;;;;;;5073313;28;19912;-33
2023/06/14 04:48:22;;;;;;;;;;;18.60;48.40;;;;;;5073226;28;19916;-33
2023/06/14 04:50:47;;;;;;;;;;;18.60;48.40;;;;;;5073102;28;19957;-34
2023/06/14 04:53:13;;;;;;;;;;;18.60;48.60;;;;;;5073243;28;19995;-34
2023/06/14 04:55:39;;;;;;;;;;;18.60;48.50;;;;;;5072877;28;19908;-34
2023/06/14 04:58:05;;;;;;;;;;;18.60;48.50;;;;;;5072632;28;19916;-34
2023/06/14 05:00:31;;;;;;;;;;;18.70;48.50;;;;;;5072790;28;20360;-33
2023/06/14 05:02:57;;;;;;;;;;;18.70;48.60;;;;;;5072607;28;19916;-36
2023/06/14 05:05:24;;;;;;;;;;;18.70;48.60;;;;;;5071304;28;20394;-34
2023/06/14 05:07:49;;;;;;;;;;;18.70;48.60;;;;;;5072710;28;19948;-35
2023/06/14 05:10:15;;;;;;;;;;;18.70;48.60;;;;;;5072675;28;20386;-35
2023/06/14 05:12:43;;;;;;;;;;;18.70;48.60;;;;;;5073044;28;19908;-35
2023/06/14 05:15:09;;;;;;;;;;;18.70;48.90;;;;;;5071435;28;19909;-34
2023/06/14 05:17:35;;;;;;;;;;;18.70;48.90;;;;;;5072629;28;19913;-35
2023/06/14 05:20:01;;;;;;;;;;;18.70;48.90;;;;;;5072633;28;19958;-35
2023/06/14 05:22:27;;;;;;;;;;;18.80;48.80;;;;;;5072625;28;19999;-37
2023/06/14 05:24:52;;;;;;;;;;;18.80;48.80;;;;;;5072425;28;19962;-31
2023/06/14 05:27:18;;;;;;;;;;;18.80;48.70;;;;;;5072511;28;19909;-33
2023/06/14 05:29:43;;;;;;;;;;;18.90;48.80;;;;;;5072623;28;20003;-35
2023/06/14 05:32:09;;;;;;;;;;;18.90;49.20;;;;;;5072676;28;19908;-35
2023/06/14 05:34:35;;;;;;;;;;;18.90;48.90;;;;;;5072440;28;19908;-33
2023/06/14 05:37:00;;;;;;;;;;;18.90;48.90;;;;;;5072505;28;19950;-35
2023/06/14 05:39:26;;;;;;;;;;;18.90;48.80;;;;;;5072561;28;19915;-32
2023/06/14 05:41:51;;;;;;;;;;;19.00;49.00;;;;;;5072269;28;19912;-34
2023/06/14 05:44:17;;;;;;;;;;;19.00;48.80;;;;;;5072170;28;20001;-34
2023/06/14 05:46:43;;;;;;;;;;;19.10;49.10;;;;;;5072092;28;19912;-34
2023/06/14 05:49:08;;;;;;;;;;;19.10;49.00;;;;;;5072577;28;19908;-35
2023/06/14 05:51:34;;;;;;;;;;;19.10;48.90;;;;;;5072029;28;19991;-33
2023/06/14 05:54:00;;;;;;;;;;;19.10;49.00;;;;;;5072174;28;19939;-34
2023/06/14 05:56:26;;;;;;;;;;;19.20;49.20;;;;;;5072095;28;19959;-35
2023/06/14 05:58:51;;;;;;;;;;;19.20;49.20;;;;;;5072363;28;19908;-35
2023/06/14 06:01:17;;;;;;;;;;;19.20;49.00;;;;;;5072071;28;19915;-35
2023/06/14 06:03:45;;;;;;;;;;;19.30;49.00;;;;;;5071917;28;19988;-34
2023/06/14 06:06:11;;;;;;;;;;;19.30;49.00;;;;;;5071896;28;19956;-34
2023/06/14 06:08:37;;;;;;;;;;;19.40;49.10;;;;;;5072027;28;20407;-33
2023/06/14 06:11:02;;;;;;;;;;;19.40;49.10;;;;;;5075941;28;20396;-34
2023/06/14 06:13:28;;;;;;;;;;;19.40;49.40;;;;;;5076093;28;19909;-34
2023/06/14 06:15:53;;;;;;;;;;;19.50;49.20;;;;;;5075954;28;20034;-37
2023/06/14 06:18:18;;;;;;;;;;;19.50;49.20;;;;;;5075938;28;19909;-35
2023/06/14 06:20:46;;;;;;;;;;;19.60;49.10;;;;;;5075876;28;19916;-34
2023/06/14 06:23:11;;;;;;;;;;;19.60;49.20;;;;;;5076128;28;19962;-35
2023/06/14 06:25:37;;;;;;;;;;;19.70;49.00;;;;;;5075871;28;19916;-35
2023/06/14 06:28:02;;;;;;;;;;;19.70;49.00;;;;;;5075769;28;20288;-35
2023/06/14 06:30:28;;;;;;;;;;;19.80;48.90;;;;;;5075754;28;19981;-35
2023/06/14 06:32:55;;;;;;;;;;;19.80;48.70;;;;;;5075643;28;20045;-36
2023/06/14 06:35:20;;;;;;;;;;;19.90;48.70;;;;;;5075560;28;20283;-37
2023/06/14 06:37:46;;;;;;;;;;;20.00;48.70;;;;;;5075702;28;19909;-40
2023/06/14 06:40:12;;;;;;;;;;;20.00;48.50;;;;;;5075457;28;19920;-34
2023/06/14 06:42:37;;;;;;;;;;;20.10;48.40;;;;;;5075317;28;20022;-35
2023/06/14 06:45:03;;;;;;;;;;;20.20;48.30;;;;;;5075089;28;19930;-34
2023/06/14 06:47:29;;;;;;;;;;;20.30;48.50;;;;;;5075000;28;19924;-35
2023/06/14 06:49:55;;;;;;;;;;;20.30;48.30;;;;;;5075160;28;20322;-34
2023/06/14 06:52:20;;;;;;;;;;;20.40;48.30;;;;;;5075483;28;19908;-34
2023/06/14 06:54:46;;;;;;;;;;;20.40;48.20;;;;;;5075451;28;19908;-33
2023/06/14 06:57:11;;;;;;;;;;;20.50;48.50;;;;;;5075107;28;19909;-36
2023/06/14 06:59:37;;;;;;;;;;;20.50;48.20;;;;;;5075098;28;19908;-33
2023/06/14 07:02:03;;;;;;;;;;;20.50;48.00;;;;;;5073655;28;19944;-34
2023/06/14 07:04:28;;;;;;;;;;;20.60;48.10;;;;;;5074793;28;19974;-34
2023/06/14 07:06:54;;;;;;;;;;;20.60;48.00;;;;;;5074710;28;19977;-36
2023/06/14 07:09:20;;;;;;;;;;;20.60;48.30;;;;;;5074900;28;19909;-35
2023/06/14 07:11:46;;;;;;;;;;;20.70;48.20;;;;;;5074822;28;20422;-34
2023/06/14 07:14:12;;;;;;;;;;;20.70;48.00;;;;;;5074926;28;19912;-34
2023/06/14 07:16:37;;;;;;;;;;;20.80;48.10;;;;;;5074722;28;20050;-33
2023/06/14 07:19:03;;;;;;;;;;;20.80;47.80;;;;;;5073229;28;20347;-39
2023/06/14 07:21:29;;;;;;;;;;;20.90;47.70;;;;;;5074876;28;19909;-36
2023/06/14 07:23:54;;;;;;;;;;;21.00;47.70;;;;;;5074509;28;19909;-35
2023/06/14 07:26:20;;;;;;;;;;;21.00;47.50;;;;;;5074430;28;19913;-34
2023/06/14 07:28:46;;;;;;;;;;;21.10;47.40;;;;;;5074643;28;19978;-33
2023/06/14 07:31:12;;;;;;;;;;;21.10;47.30;;;;;;5074544;28;19909;-36
2023/06/14 07:33:38;;;;;;;;;;;21.20;47.30;;;;;;5074520;28;19916;-34
2023/06/14 07:36:03;;;;;;;;;;;21.30;47.20;;;;;;5074505;28;19908;-33
2023/06/14 07:38:29;;;;;;;;;;;21.40;47.10;;;;;;5074242;28;19916;-34
2023/06/14 07:40:54;;;;;;;;;;;21.40;47.00;;;;;;5074374;28;19959;-34
2023/06/14 07:43:20;;;;;;;;;;;21.50;46.90;;;;;;5074378;28;20356;-35
2023/06/14 07:45:45;;;;;;;;;;;21.50;46.80;;;;;;5073998;28;19912;-35
2023/06/14 07:48:11;;;;;;;;;;;21.50;46.60;;;;;;5074356;28;19909;-37
2023/06/14 07:50:36;;;;;;;;;;;21.60;46.70;;;;;;5074061;28;19908;-34
2023/06/14 07:53:02;;;;;;;;;;;21.70;46.60;;;;;;5072779;28;19916;-35
2023/06/14 07:55:28;;;;;;;;;;;21.80;46.50;;;;;;5074088;28;19908;-35
2023/06/14 07:57:54;;;;;;;;;;;21.80;46.30;;;;;;5073988;28;20018;-35
2023/06/14 08:00:20;;;;;;;;;;;22.00;46.40;;;;;;5074083;28;19908;-34
2023/06/14 08:02:45;;;;;;;;;;;22.00;46.00;;;;;;5073837;28;19908;-32
2023/06/14 08:05:11;;;;;;;;;;;22.10;45.90;;;;;;5073744;28;19920;-35
2023/06/14 08:07:37;;;;;;;;;;;22.20;45.80;;;;;;5073910;28;19915;-33
2023/06/14 08:10:03;;;;;;;;;;;22.30;45.60;;;;;;5074065;28;19913;-37
2023/06/14 08:12:28;;;;;;;;;;;22.30;45.40;;;;;;5074027;28;20550;-35
2023/06/14 08:14:54;;;;;;;;;;;22.40;45.40;;;;;;5072415;28;20363;-36
2023/06/14 08:17:19;;;;;;;;;;;22.40;44.90;;;;;;5074218;28;19912;-34
2023/06/14 08:19:45;;;;;;;;;;;22.40;44.80;;;;;;5073749;28;20283;-34
2023/06/14 08:22:12;;;;;;;;;;;22.50;44.80;;;;;;5073941;28;19909;-34
2023/06/14 08:24:37;;;;;;;;;;;22.50;44.70;;;;;;5073613;28;19913;-34
2023/06/14 08:27:03;;;;;;;;;;;22.50;44.60;;;;;;5073502;28;20257;-37
2023/06/14 08:29:30;;;;;;;;;;;22.60;44.30;;;;;;5073539;28;20359;-35
2023/06/14 08:31:55;;;;;;;;;;;22.70;44.30;;;;;;5073041;28;19909;-34
2023/06/14 08:34:23;;;;;;;;;;;22.70;44.00;;;;;;5073343;28;20228;-36
2023/06/14 08:36:50;;;;;;;;;;;22.80;44.00;;;;;;5073253;28;20434;-34
2023/06/14 08:39:15;;;;;;;;;;;22.80;43.90;;;;;;5073287;28;20283;-34
2023/06/14 08:41:42;;;;;;;;;;;22.80;43.90;;;;;;5073248;28;19915;-29
2023/06/14 08:44:08;;;;;;;;;;;22.90;44.00;;;;;;5072969;28;20040;-28
2023/06/14 08:46:34;;;;;;;;;;;22.90;43.90;;;;;;5073082;28;19909;-29
2023/06/14 08:49:01;;;;;;;;;;;23.00;43.90;;;;;;5073302;28;20280;-25
2023/06/14 08:51:33;;;;;;;;;;;23.00;43.70;;;;;;5072972;28;20429;-28
2023/06/14 08:54:01;;;;;;;;;;;23.10;43.20;;;;;;5072789;28;19915;-26
2023/06/14 08:56:30;;;;;;;;;;;23.10;43.10;;;;;;5072787;28;19958;-29
2023/06/14 08:58:56;;;;;;;;;;;23.10;43.20;;;;;;5072804;28;20422;-28
2023/06/14 09:01:23;;;;;;;;;;;23.20;43.10;;;;;;5073081;28;20007;-34
2023/06/14 09:03:49;;;;;;;;;;;23.30;43.10;;;;;;5072567;28;19943;-26
2023/06/14 09:06:15;;;;;;;;;;;23.30;43.10;;;;;;5072320;28;19975;-28
2023/06/14 09:08:44;;;;;;;;;;;23.30;43.00;;;;;;5072643;28;19909;-30
2023/06/14 09:11:11;;;;;;;;;;;23.40;42.90;;;;;;5072622;28;20323;-26
2023/06/14 09:13:36;;;;;;;;;;;23.50;43.00;;;;;;5072515;28;19909;-35
2023/06/14 09:16:02;;;;;;;;;;;23.50;42.60;;;;;;5072449;28;19919;-37
2023/06/14 09:18:34;;;;;;;;;;;23.60;42.40;;;;;;5072411;28;20413;-37
2023/06/14 09:21:00;;;;;;;;;;;23.60;41.90;;;;;;5072362;28;20383;-34
2023/06/14 09:23:25;;;;;;;;;;;23.60;42.20;;;;;;5072277;28;19938;-32
2023/06/14 09:25:51;;;;;;;;;;;23.60;42.10;;;;;;5072197;28;20373;-33
2023/06/14 09:28:16;;;;;;;;;;;23.60;42.20;;;;;;5072267;28;20074;-34
2023/06/14 09:30:42;;;;;;;;;;;23.60;42.30;;;;;;5072181;28;19920;-29
2023/06/14 09:33:08;;;;;;;;;;;23.70;42.30;;;;;;5072252;28;19915;-33
2023/06/14 09:35:33;;;;;;;;;;;23.80;42.30;;;;;;5072297;28;19932;-34
2023/06/14 09:37:59;;;;;;;;;;;23.90;42.40;;;;;;5071996;28;19908;-36
2023/06/14 09:40:25;;;;;;;;;;;23.90;42.30;;;;;;5072144;28;19909;-34
2023/06/14 09:42:51;;;;;;;;;;;24.00;42.20;;;;;;5072076;28;20253;-32
2023/06/14 09:45:21;;;;;;;;;;;24.00;42.10;;;;;;5071284;28;20228;-35
2023/06/14 09:47:48;;;;;;;;;;;24.00;42.10;;;;;;5071919;28;19909;-34
2023/06/14 09:50:14;;;;;;;;;;;24.10;41.90;;;;;;5072126;28;20305;-33
2023/06/14 09:52:40;;;;;;;;;;;24.10;41.90;;;;;;5071944;28;19909;-34
2023/06/14 09:55:11;;;;;;;;;;;24.10;40.80;;;;;;5072018;28;19909;-32
2023/06/14 09:57:37;;;;;;;;;;;24.10;41.10;;;;;;5072115;28;20434;-36
2023/06/14 10:00:09;;;;;;;;;;;24.10;41.40;;;;;;5071963;28;19909;-35
2023/06/14 10:02:37;;;;;;;;;;;24.20;41.40;;;;;;5071858;28;20389;-33
2023/06/14 10:05:03;;;;;;;;;;;24.30;41.20;;;;;;5071581;28;19916;-35
2023/06/14 10:07:31;;;;;;;;;;;24.30;40.90;;;;;;5071833;28;19908;-33
2023/06/14 10:09:57;;;;;;;;;;;24.30;40.80;;;;;;5071587;28;20260;-36
2023/06/14 10:12:23;;;;;;;;;;;24.40;41.00;;;;;;5070212;28;19919;-31
2023/06/14 10:14:53;;;;;;;;;;;24.40;41.10;;;;;;5071656;28;20001;-34
2023/06/14 10:17:39;;;;;;;;;;;24.50;41.10;;;;;;5071648;28;20364;-33
2023/06/14 10:20:11;;;;;;;;;;;24.60;40.90;;;;;;5071053;28;19912;-35
2023/06/14 10:22:39;;;;;;;;;;;24.70;40.10;;;;;;5071490;28;19912;-34
2023/06/14 10:25:07;;;;;;;;;;;24.70;40.30;;;;;;5071699;28;19970;-37
2023/06/14 10:27:32;;;;;;;;;;;24.70;40.40;;;;;;5071486;28;20003;-31
2023/06/14 10:30:01;;;;;;;;;;;24.70;40.40;;;;;;5071504;28;19915;-29
2023/06/14 10:32:28;;;;;;;;;;;24.70;40.30;;;;;;5071732;28;19916;-35
2023/06/14 10:34:56;;;;;;;;;;;24.70;40.00;;;;;;5071554;28;20284;-31
2023/06/14 10:37:21;;;;;;;;;;;24.70;40.20;;;;;;5071587;28;19995;-33
2023/06/14 10:39:47;;;;;;;;;;;24.70;40.30;;;;;;5071436;28;19991;-32
2023/06/14 10:42:13;;;;;;;;;;;24.70;40.20;;;;;;5070256;28;19909;-35
2023/06/14 10:44:38;;;;;;;;;;;24.70;39.90;;;;;;5071550;28;20025;-33
2023/06/14 10:47:06;;;;;;;;;;;24.80;40.00;;;;;;5071531;28;19916;-32
2023/06/14 10:49:42;;;;;;;;;;;24.80;40.10;;;;;;5071566;28;19931;-31
2023/06/14 10:52:18;;;;;;;;;;;24.90;39.80;;;;;;5071358;28;19915;-33
2023/06/14 10:55:04;;;;;;;;;;;25.00;39.70;;;;;;5071676;28;19920;-33
2023/06/14 10:57:31;;;;;;;;;;;25.00;39.50;;;;;;5075668;28;20324;-35
2023/06/14 10:59:57;;;;;;;;;;;25.00;39.30;;;;;;5075106;28;19916;-34
2023/06/14 11:02:29;;;;;;;;;;;25.10;39.50;;;;;;5073636;28;20280;-35
2023/06/14 11:04:56;;;;;;;;;;;25.10;39.20;;;;;;5074797;28;20680;-30
2023/06/14 11:07:36;;;;;;;;;;;25.20;39.40;;;;;;5074861;28;20007;-34
2023/06/14 11:10:14;;;;;;;;;;;25.20;39.40;;;;;;5075095;28;20379;-29
2023/06/14 11:12:39;;;;;;;;;;;25.30;39.00;;;;;;5073397;28;19908;-33
2023/06/14 11:15:05;;;;;;;;;;;25.30;38.70;;;;;;5075018;28;20283;-35
2023/06/14 11:17:32;;;;;;;;;;;25.30;38.90;;;;;;5074704;28;19916;-33
2023/06/14 11:20:07;;;;;;;;;;;25.30;39.00;;;;;;5074829;28;19908;-30
2023/06/14 11:22:38;;;;;;;;;;;25.30;39.10;;;;;;5074546;28;20284;-30
2023/06/14 11:25:05;;;;;;;;;;;25.40;39.10;;;;;;5074428;28;20280;-33
2023/06/14 11:27:32;;;;;;;;;;;25.40;38.90;;;;;;5074518;28;20326;-33
2023/06/14 11:29:58;;;;;;;;;;;25.50;39.00;;;;;;5074399;28;19916;-34
2023/06/14 11:32:24;;;;;;;;;;;25.50;38.80;;;;;;5074673;28;19908;-32
2023/06/14 11:34:51;;;;;;;;;;;25.60;38.20;;;;;;5074084;28;19934;-35
2023/06/14 11:37:16;;;;;;;;;;;25.60;38.20;;;;;;5074403;28;19986;-35
2023/06/14 11:39:45;;;;;;;;;;;25.70;38.30;;;;;;5074188;28;19912;-35
2023/06/14 11:42:13;;;;;;;;;;;25.90;38.20;;;;;;5074290;28;20034;-32
2023/06/14 11:44:39;;;;;;;;;;;26.00;38.20;;;;;;5074171;28;20328;-35
2023/06/14 11:47:04;;;;;;;;;;;26.10;38.10;;;;;;5074183;28;19909;-31
2023/06/14 11:49:34;;;;;;;;;;;26.20;38.10;;;;;;5073901;28;19909;-33
2023/06/14 11:52:00;;;;;;;;;;;26.40;38.20;;;;;;5074023;28;19995;-33
2023/06/14 11:54:26;;;;;;;;;;;26.50;38.20;;;;;;5074203;28;19954;-33
2023/06/14 11:56:51;;;;;;;;;;;26.60;38.20;;;;;;5073912;28;20368;-31
2023/06/14 11:59:17;;;;;;;;;;;26.70;38.20;;;;;;5073876;28;20307;-31
2023/06/14 12:01:43;;;;;;;;;;;26.90;38.20;;;;;;5072472;28;20407;-31
2023/06/14 12:04:08;;;;;;;;;;;27.00;38.00;;;;;;5073806;28;19909;-33
2023/06/14 12:06:39;;;;;;;;;;;27.10;37.90;;;;;;5072913;28;19921;-34
2023/06/14 12:09:12;;;;;;;;;;;27.10;37.20;;;;;;5073589;28;19908;-33
2023/06/14 12:11:38;;;;;;;;;;;27.00;37.20;;;;;;5073605;28;19915;-36
2023/06/14 12:14:04;;;;;;;;;;;27.00;37.50;;;;;;5073953;28;19991;-31
2023/06/14 12:16:32;;;;;;;;;;;27.10;37.30;;;;;;5073606;28;19978;-33
2023/06/14 12:19:00;;;;;;;;;;;27.20;37.40;;;;;;5073500;28;20257;-28
2023/06/14 12:21:27;;;;;;;;;;;27.30;37.30;;;;;;5072159;28;20569;-33
2023/06/14 12:23:53;;;;;;;;;;;27.30;37.20;;;;;;5073450;28;19948;-33
2023/06/14 12:26:19;;;;;;;;;;;27.40;37.30;;;;;;5073376;28;19967;-35
2023/06/14 12:28:45;;;;;;;;;;;27.40;37.20;;;;;;5072260;28;19962;-31
2023/06/14 12:31:12;;;;;;;;;;;27.50;37.30;;;;;;5073290;28;19918;-34
2023/06/14 12:33:37;;;;;;;;;;;27.60;37.00;;;;;;5073278;28;19909;-30
2023/06/14 12:36:03;;;;;;;;;;;27.60;37.10;;;;;;5073095;28;20404;-31
2023/06/14 12:38:29;;;;;;;;;;;27.60;37.20;;;;;;5072997;28;19908;-33
2023/06/14 12:40:54;;;;;;;;;;;27.70;37.20;;;;;;5073124;28;19908;-29
2023/06/14 12:43:20;;;;;;;;;;;27.80;37.10;;;;;;5073057;28;20368;-32
2023/06/14 12:45:45;;;;;;;;;;;27.90;37.20;;;;;;5072860;28;19916;-32
2023/06/14 12:48:11;;;;;;;;;;;28.00;37.20;;;;;;5072936;28;19931;-31
2023/06/14 12:50:36;;;;;;;;;;;28.10;37.10;;;;;;5072896;28;20352;-34
2023/06/14 12:53:02;;;;;;;;;;;28.20;37.10;;;;;;5072720;28;19912;-32
2023/06/14 12:55:27;;;;;;;;;;;28.30;37.10;;;;;;5072794;28;19916;-34
2023/06/14 12:57:53;;;;;;;;;;;28.30;36.90;;;;;;5072632;28;19999;-35
2023/06/14 13:00:20;;;;;;;;;;;28.30;36.70;;;;;;5072707;28;19908;-34
2023/06/14 13:02:46;;;;;;;;;;;28.40;36.70;;;;;;5072461;28;20319;-30
2023/06/14 13:05:11;;;;;;;;;;;28.40;36.90;;;;;;5072860;28;19943;-31
2023/06/14 13:07:37;;;;;;;;;;;28.50;36.90;;;;;;5072436;28;19912;-33
2023/06/14 13:10:03;;;;;;;;;;;28.60;36.80;;;;;;5072478;28;19912;-35
2023/06/14 13:12:28;;;;;;;;;;;28.70;36.80;;;;;;5072414;28;20378;-32
2023/06/14 13:14:54;;;;;;;;;;;28.80;36.60;;;;;;5072338;28;19908;-34
2023/06/14 13:17:19;;;;;;;;;;;28.80;36.50;;;;;;5072530;28;19915;-31
2023/06/14 13:19:45;;;;;;;;;;;28.90;36.40;;;;;;5072176;28;19992;-34
2023/06/14 13:22:10;;;;;;;;;;;28.90;36.20;;;;;;5072412;28;19908;-30
2023/06/14 13:24:36;;;;;;;;;;;28.90;36.20;;;;;;5072291;28;20372;-35
2023/06/14 13:27:01;;;;;;;;;;;28.90;36.20;;;;;;5072185;28;19913;-33
2023/06/14 13:29:27;;;;;;;;;;;29.00;36.30;;;;;;5070789;28;19908;-33
2023/06/14 13:31:53;;;;;;;;;;;29.10;36.20;;;;;;5072164;28;20005;-35
2023/06/14 13:34:18;;;;;;;;;;;29.20;36.20;;;;;;5072140;28;19994;-35
2023/06/14 13:36:44;;;;;;;;;;;29.20;36.20;;;;;;5071931;28;19923;-36
2023/06/14 13:39:10;;;;;;;;;;;29.30;36.00;;;;;;5072041;28;19947;-29
2023/06/14 13:41:36;;;;;;;;;;;29.40;36.00;;;;;;5072333;28;19916;-32
2023/06/14 13:44:03;;;;;;;;;;;29.60;36.10;;;;;;5071698;28;19916;-31
2023/06/14 13:46:29;;;;;;;;;;;29.70;35.90;;;;;;5071738;28;19919;-30
2023/06/14 13:48:54;;;;;;;;;;;29.70;35.70;;;;;;5071957;28;20351;-34
2023/06/14 13:51:20;;;;;;;;;;;29.70;35.80;;;;;;5071720;28;19915;-31
2023/06/14 13:53:47;;;;;;;;;;;29.80;35.80;;;;;;5071671;28;19908;-31
2023/06/14 13:56:12;;;;;;;;;;;30.00;35.80;;;;;;5071901;28;19908;-31
2023/06/14 13:58:38;;;;;;;;;;;30.10;35.50;;;;;;5071536;28;19915;-30
2023/06/14 14:01:03;;;;;;;;;;;30.10;35.50;;;;;;5071446;28;19912;-31
2023/06/14 14:03:29;;;;;;;;;;;30.20;35.30;;;;;;5071475;28;19990;-34
2023/06/14 14:05:54;;;;;;;;;;;30.20;35.20;;;;;;5071302;28;19927;-31
2023/06/14 14:08:20;;;;;;;;;;;30.10;34.80;;;;;;5071376;28;19915;-34
2023/06/14 14:10:45;;;;;;;;;;;30.10;35.10;;;;;;5071343;28;19916;-31